Language: 


Des rapports , des résumés tant et plus, au choix de chacun....


Données statistiques de la station
Quotidien Rapport Mars 1, 2017 Unités:  Métrique    Anglais   les deux
« Précédent Jour
Suivant Jour »
Quotidien Hebdomadaire Mensuel Annuel Actuel
  Haut: Bas: Moyen:
Température: 10.1 °C 0.0 °C 8 °C
Pt de rosée: 8.5 °C 4.1 °C 6.2 °C
Humidité: 98 % 0 % 88 %
Vitesse du vent: 37.5 km/h 0.0 km/h 16.2 km/h
Rafales: 43.6 km/h - -
Vent:- - WSW
Pression: 1000.9 hPa 0.0 hPa -
Précipitation: 2.8 mm    
Historical Graphs
 
 
Données statistiques pour Mars 1, 2017
Heure Température Point de rosée Pression Vent Vitesse du vent Refales Humidité Pluie (taux horaire)
00:01 5.9 °C 5.4 °C 994.1 hPa SSW 13.0 km/h 20.9 km/h 97 % 0.3 mm
00:07 6.0 °C 5.6 °C 994.1 hPa WSW 12.2 km/h 23.0 km/h 97 % 0.3 mm
00:12 6.1 °C 5.6 °C 994.1 hPa SSW 16.3 km/h 23.0 km/h 97 % 0.3 mm
00:17 6.2 °C 5.7 °C 994.1 hPa WSW 15.4 km/h 20.9 km/h 97 % 0.3 mm
00:22 6.3 °C 5.8 °C 994.1 hPa SW 14.0 km/h 20.6 km/h 97 % 0.3 mm
00:27 6.4 °C 5.9 °C 995.1 hPa WSW 13.0 km/h 20.6 km/h 97 % 0.3 mm
00:32 6.4 °C 6.0 °C 995.1 hPa SSW 16.6 km/h 20.1 km/h 97 % 0.0 mm
00:37 6.6 °C 6.1 °C 995.1 hPa SSW 13.0 km/h 20.1 km/h 97 % 0.0 mm
00:42 6.6 °C 6.1 °C 994.1 hPa WSW 16.3 km/h 21.2 km/h 97 % 0.0 mm
00:47 6.7 °C 6.2 °C 994.1 hPa SW 15.8 km/h 21.2 km/h 97 % 0.0 mm
00:52 6.7 °C 6.2 °C 994.1 hPa WSW 17.2 km/h 23.8 km/h 97 % 0.0 mm
00:57 6.8 °C 6.3 °C 994.1 hPa WSW 24.5 km/h 24.5 km/h 97 % 0.0 mm
01:02 6.8 °C 6.3 °C 994.1 hPa SW 16.6 km/h 24.5 km/h 97 % 0.0 mm
01:07 6.8 °C 6.3 °C 994.1 hPa WSW 18.0 km/h 21.9 km/h 97 % 0.0 mm
01:12 6.8 °C 6.4 °C 994.1 hPa WSW 17.2 km/h 21.9 km/h 97 % 0.0 mm
01:17 6.8 °C 6.4 °C 994.1 hPa SW 19.5 km/h 24.8 km/h 97 % 0.0 mm
01:22 6.9 °C 6.5 °C 994.1 hPa West 31.4 km/h 31.4 km/h 97 % 0.0 mm
01:27 7.1 °C 6.4 °C 994.1 hPa West 19.8 km/h 32.0 km/h 96 % 0.0 mm
01:32 7.2 °C 6.6 °C 994.1 hPa WSW 17.7 km/h 32.0 km/h 96 % 0.3 mm
01:37 7.2 °C 6.6 °C 994.1 hPa WSW 23.3 km/h 23.3 km/h 96 % 0.3 mm
01:42 7.3 °C 6.7 °C 994.1 hPa West 31.4 km/h 32.8 km/h 96 % 0.3 mm
01:47 7.3 °C 6.6 °C 994.1 hPa WSW 24.8 km/h 38.1 km/h 95 % 0.3 mm
01:52 7.4 °C 6.6 °C 994.1 hPa WSW 37.0 km/h 38.5 km/h 94 % 0.3 mm
01:57 7.6 °C 6.2 °C 994.1 hPa West 35.2 km/h 38.5 km/h 91 % 0.3 mm
02:02 0.0 °C 5.9 °C 0.0 hPa Calm     0 % 0.3 mm
02:07 7.7 °C 5.7 °C 994.1 hPa West 23.0 km/h 41.4 km/h 87 % 0.3 mm
02:12 7.7 °C 5.6 °C 995.1 hPa WSW 24.5 km/h 41.4 km/h 86 % 0.3 mm
02:17 7.8 °C 5.5 °C 995.1 hPa WSW 31.7 km/h 41.4 km/h 85 % 0.3 mm
02:22 7.8 °C 5.3 °C 995.1 hPa West 29.9 km/h 41.7 km/h 84 % 0.3 mm
02:27 7.8 °C 5.1 °C 995.1 hPa West 37.0 km/h 41.7 km/h 83 % 0.3 mm
02:32 7.9 °C 5.1 °C 995.1 hPa West 28.5 km/h 41.7 km/h 82 % 0.0 mm
02:37 7.9 °C 4.9 °C 995.1 hPa West 24.5 km/h 43.6 km/h 81 % 0.0 mm
02:42 8.1 °C 4.9 °C 995.1 hPa West 28.0 km/h 43.6 km/h 81 % 0.0 mm
02:47 8.1 °C 4.8 °C 995.1 hPa West 36.0 km/h 41.7 km/h 80 % 0.0 mm
02:52 8.1 °C 4.7 °C 995.1 hPa West 27.7 km/h 41.7 km/h 79 % 0.0 mm
02:57 8.1 °C 4.6 °C 995.1 hPa West 24.5 km/h 37.5 km/h 79 % 0.0 mm
03:02 8.1 °C 4.8 °C 995.1 hPa West 23.8 km/h 33.5 km/h 80 % 0.0 mm
03:07 8.1 °C 4.8 °C 995.1 hPa West 20.6 km/h 41.0 km/h 80 % 0.0 mm
03:12 8.1 °C 4.6 °C 995.1 hPa West 27.7 km/h 41.0 km/h 79 % 0.0 mm
03:17 8.1 °C 4.6 °C 995.1 hPa WSW 29.9 km/h 37.8 km/h 79 % 0.0 mm
03:22 8.1 °C 4.6 °C 995.1 hPa West 32.8 km/h 38.5 km/h 79 % 0.0 mm
03:27 8.1 °C 4.4 °C 995.1 hPa WSW 31.7 km/h 38.5 km/h 78 % 0.0 mm
03:32 8.1 °C 4.4 °C 995.1 hPa West 17.2 km/h 37.8 km/h 78 % 0.0 mm
03:37 8.1 °C 4.3 °C 996.2 hPa West 23.0 km/h 36.7 km/h 77 % 0.0 mm
03:42 8.1 °C 4.4 °C 996.2 hPa West 28.0 km/h 41.7 km/h 78 % 0.0 mm
03:47 8.1 °C 4.4 °C 996.2 hPa WSW 30.6 km/h 41.7 km/h 78 % 0.0 mm
03:52 8.1 °C 4.4 °C 996.2 hPa WSW 23.8 km/h 36.7 km/h 78 % 0.0 mm
03:57 8.1 °C 4.2 °C 996.2 hPa West 19.1 km/h 36.7 km/h 77 % 0.0 mm
04:02 7.9 °C 4.2 °C 996.2 hPa West 35.6 km/h 38.5 km/h 77 % 0.0 mm
04:07 7.8 °C 4.1 °C 996.2 hPa WSW 37.5 km/h 38.5 km/h 77 % 0.0 mm
04:12 7.8 °C 4.1 °C 996.2 hPa WSW 25.6 km/h 37.8 km/h 77 % 0.0 mm
04:17 7.7 °C 4.2 °C 996.2 hPa WSW 13.7 km/h 37.8 km/h 78 % 0.0 mm
04:22 7.8 °C 4.1 °C 996.8 hPa West 28.5 km/h 38.9 km/h 77 % 0.0 mm
04:27 7.7 °C 4.2 °C 996.8 hPa West 28.5 km/h 38.9 km/h 78 % 0.0 mm
04:32 7.7 °C 4.2 °C 996.8 hPa WSW 21.2 km/h 35.2 km/h 78 % 0.0 mm
04:38 7.6 °C 4.1 °C 996.8 hPa WSW 16.9 km/h 28.5 km/h 79 % 0.0 mm
04:43 7.7 °C 4.2 °C 996.8 hPa West 28.0 km/h 40.4 km/h 79 % 0.0 mm
04:48 7.7 °C 4.2 °C 996.8 hPa West 17.7 km/h 40.4 km/h 79 % 0.0 mm
04:53 7.7 °C 4.2 °C 996.8 hPa West 23.3 km/h 31.4 km/h 79 % 0.0 mm
04:57 7.7 °C 4.2 °C 996.8 hPa WSW 20.1 km/h 31.7 km/h 79 % 0.0 mm
05:03 7.6 °C 4.1 °C 996.8 hPa West 19.8 km/h 31.7 km/h 79 % 0.0 mm
05:08 7.6 °C 4.3 °C 996.2 hPa West 16.6 km/h 24.8 km/h 80 % 0.0 mm
05:13 7.4 °C 4.2 °C 996.2 hPa WSW 16.3 km/h 31.4 km/h 80 % 0.0 mm
05:18 7.4 °C 4.4 °C 996.2 hPa West 13.0 km/h 31.4 km/h 81 % 0.0 mm
05:23 7.3 °C 4.3 °C 996.8 hPa West 8.7 km/h 24.5 km/h 81 % 0.0 mm
05:27 7.3 °C 4.3 °C 996.8 hPa West 20.9 km/h 23.0 km/h 81 % 0.0 mm
05:33 7.3 °C 4.5 °C 996.8 hPa West 12.2 km/h 23.0 km/h 82 % 0.0 mm
05:38 7.3 °C 4.7 °C 997.9 hPa West 37.0 km/h 37.0 km/h 83 % 0.0 mm
05:42 7.3 °C 4.6 °C 997.9 hPa WSW 17.2 km/h 37.0 km/h 83 % 0.0 mm
05:48 7.3 °C 4.7 °C 997.9 hPa SW 23.8 km/h 38.5 km/h 84 % 0.0 mm
05:53 7.2 °C 4.8 °C 997.9 hPa West 16.6 km/h 38.5 km/h 85 % 0.0 mm
05:58 7.2 °C 4.9 °C 997.9 hPa West 28.0 km/h 28.0 km/h 86 % 0.3 mm
06:03 7.2 °C 5.1 °C 997.9 hPa West 19.5 km/h 36.0 km/h 87 % 0.3 mm
06:08 7.2 °C 5.1 °C 997.9 hPa West 20.1 km/h 36.0 km/h 87 % 0.3 mm
06:13 7.2 °C 5.3 °C 997.9 hPa SW 20.6 km/h 28.5 km/h 88 % 0.3 mm
06:18 7.2 °C 5.6 °C 997.9 hPa West 16.6 km/h 32.8 km/h 90 % 0.3 mm
06:23 7.2 °C 5.6 °C 998.9 hPa West 16.6 km/h 32.8 km/h 90 % 0.3 mm
06:28 7.1 °C 5.5 °C 998.9 hPa West 20.9 km/h 32.8 km/h 90 % 0.3 mm
06:33 6.9 °C 5.3 °C 998.9 hPa West 12.2 km/h 27.0 km/h 89 % 0.5 mm
06:38 6.8 °C 5.2 °C 998.9 hPa West 16.6 km/h 22.7 km/h 89 % 0.5 mm
06:43 6.8 °C 5.2 °C 998.9 hPa WSW 16.9 km/h 22.4 km/h 89 % 0.5 mm
06:48 6.8 °C 5.3 °C 998.9 hPa WSW 17.7 km/h 22.7 km/h 90 % 0.5 mm
06:53 6.8 °C 5.5 °C 998.9 hPa West 20.9 km/h 22.7 km/h 91 % 0.5 mm
06:58 6.8 °C 5.5 °C 998.9 hPa West 22.7 km/h 23.8 km/h 91 % 0.3 mm
07:03 6.8 °C 5.5 °C 998.9 hPa West 24.8 km/h 24.8 km/h 91 % 0.3 mm
07:08 6.9 °C 5.4 °C 998.9 hPa WSW 20.1 km/h 24.8 km/h 90 % 0.3 mm
07:13 6.9 °C 5.4 °C 998.9 hPa West 27.0 km/h 27.0 km/h 90 % 0.3 mm
07:18 6.9 °C 5.1 °C 998.9 hPa WSW 21.2 km/h 27.0 km/h 88 % 0.3 mm
07:23 6.9 °C 4.9 °C 998.9 hPa West 24.5 km/h 27.0 km/h 87 % 0.3 mm
07:28 6.8 °C 4.8 °C 998.9 hPa West 16.9 km/h 27.4 km/h 87 % 0.0 mm
07:33 6.8 °C 4.8 °C 998.9 hPa WSW 16.3 km/h 28.0 km/h 87 % 0.0 mm
07:38 6.8 °C 4.7 °C 998.9 hPa West 17.7 km/h 28.0 km/h 87 % 0.0 mm
07:43 6.8 °C 4.8 °C 998.9 hPa West 21.2 km/h 28.5 km/h 87 % 0.0 mm
07:48 6.8 °C 4.8 °C 998.9 hPa WSW 19.5 km/h 28.5 km/h 87 % 0.0 mm
07:53 6.8 °C 5.0 °C 998.9 hPa West 14.8 km/h 24.8 km/h 88 % 0.0 mm
07:58 6.8 °C 5.0 °C 998.9 hPa WSW 13.0 km/h 24.8 km/h 88 % 0.0 mm
08:03 6.8 °C 4.9 °C 998.9 hPa WNW 11.9 km/h 20.6 km/h 88 % 0.0 mm
08:08 6.8 °C 4.9 °C 998.9 hPa West 7.9 km/h 15.8 km/h 88 % 0.0 mm
08:13 6.7 °C 4.8 °C 998.9 hPa West 13.7 km/h 15.4 km/h 88 % 0.0 mm
08:18 6.8 °C 5.1 °C 998.9 hPa West 11.9 km/h 16.6 km/h 89 % 0.0 mm
08:23 6.8 °C 5.2 °C 998.9 hPa West 13.7 km/h 16.6 km/h 89 % 0.0 mm
08:28 6.9 °C 5.3 °C 998.9 hPa West 9.3 km/h 14.3 km/h 89 % 0.0 mm
08:33 6.9 °C 5.3 °C 998.9 hPa West 9.7 km/h 14.0 km/h 89 % 0.0 mm
08:38 7.1 °C 5.4 °C 999.9 hPa WSW 10.5 km/h 14.0 km/h 89 % 0.0 mm
08:43 7.2 °C 5.4 °C 999.9 hPa WSW 15.8 km/h 17.7 km/h 89 % 0.0 mm
08:48 7.2 °C 5.4 °C 999.9 hPa West 13.0 km/h 20.1 km/h 89 % 0.0 mm
08:53 7.3 °C 5.6 °C 999.9 hPa WSW 13.7 km/h 20.1 km/h 89 % 0.0 mm
08:58 7.3 °C 5.6 °C 999.9 hPa West 13.0 km/h 18.3 km/h 89 % 0.0 mm
09:03 7.3 °C 5.5 °C 999.9 hPa WSW 11.1 km/h 17.7 km/h 88 % 0.0 mm
09:08 7.4 °C 5.6 °C 1000.9 hPa WSW 12.2 km/h 17.7 km/h 88 % 0.0 mm
09:13 7.6 °C 5.8 °C 1000.9 hPa WSW 12.6 km/h 15.4 km/h 89 % 0.0 mm
09:18 7.6 °C 5.8 °C 1000.9 hPa WSW 17.7 km/h 18.0 km/h 89 % 0.0 mm
09:23 7.7 °C 5.8 °C 1000.9 hPa WSW 10.1 km/h 18.0 km/h 88 % 0.0 mm
09:28 7.7 °C 5.9 °C 1000.9 hPa WSW 10.5 km/h 17.7 km/h 88 % 0.0 mm
09:33 7.8 °C 5.8 °C 1000.9 hPa WSW 17.2 km/h 17.7 km/h 87 % 0.0 mm
09:38 7.8 °C 5.7 °C 1000.9 hPa WSW 14.0 km/h 19.8 km/h 86 % 0.0 mm
09:43 7.9 °C 5.7 °C 1000.9 hPa WSW 17.7 km/h 21.6 km/h 86 % 0.0 mm
09:48 8.1 °C 5.7 °C 1000.9 hPa WSW 21.6 km/h 21.6 km/h 85 % 0.0 mm
09:53 8.1 °C 5.8 °C 1000.9 hPa WSW 16.6 km/h 21.6 km/h 85 % 0.0 mm
09:58 8.2 °C 5.7 °C 1000.9 hPa WSW 15.1 km/h 21.6 km/h 84 % 0.0 mm
10:03 8.4 °C 5.9 °C 1000.9 hPa SW 15.4 km/h 23.0 km/h 84 % 0.0 mm
10:04 8.4 °C 5.9 °C 1000.9 hPa SW 15.4 km/h 23.0 km/h 84 % 0.0 mm
10:09 8.5 °C 5.8 °C 999.9 hPa West 14.0 km/h 23.8 km/h 83 % 0.0 mm
10:14 8.7 °C 6.0 °C 999.9 hPa WSW 15.8 km/h 23.8 km/h 83 % 0.0 mm
10:19 8.8 °C 5.9 °C 999.9 hPa WSW 16.6 km/h 20.9 km/h 82 % 0.0 mm
10:24 8.9 °C 6.0 °C 1000.9 hPa WSW 14.0 km/h 20.9 km/h 82 % 0.0 mm
10:29 9.0 °C 5.9 °C 1000.9 hPa WSW 19.8 km/h 28.5 km/h 81 % 0.0 mm
10:34 9.0 °C 5.7 °C 1000.9 hPa WSW 14.0 km/h 28.5 km/h 80 % 0.0 mm
10:39 9.0 °C 5.7 °C 1000.9 hPa WSW 21.2 km/h 23.8 km/h 80 % 0.0 mm
10:44 9.1 °C 5.8 °C 1000.9 hPa West 16.9 km/h 24.5 km/h 80 % 0.0 mm
10:49 9.0 °C 5.2 °C 1000.9 hPa West 24.5 km/h 24.8 km/h 77 % 0.0 mm
10:54 9.1 °C 5.5 °C 1000.9 hPa WSW 21.2 km/h 24.8 km/h 78 % 0.0 mm
10:59 9.1 °C 5.5 °C 1000.9 hPa WSW 24.5 km/h 28.5 km/h 78 % 0.0 mm
11:04 9.2 °C 5.6 °C 1000.9 hPa WSW 16.6 km/h 28.5 km/h 78 % 0.0 mm
11:09 9.3 °C 5.8 °C 1000.9 hPa WSW 21.2 km/h 24.8 km/h 79 % 0.0 mm
11:14 9.3 °C 5.8 °C 1000.9 hPa West 15.8 km/h 24.8 km/h 79 % 0.0 mm
11:19 9.3 °C 5.8 °C 1000.9 hPa WSW 16.6 km/h 25.6 km/h 79 % 0.0 mm
11:24 9.3 °C 6.1 °C 1000.9 hPa WSW 17.7 km/h 25.6 km/h 80 % 0.0 mm
11:29 9.4 °C 6.1 °C 1000.9 hPa WSW 13.7 km/h 20.9 km/h 80 % 0.0 mm
11:34 9.5 °C 6.4 °C 1000.9 hPa WSW 11.9 km/h 19.5 km/h 81 % 0.0 mm
11:39 9.7 °C 6.8 °C 1000.9 hPa WSW 12.6 km/h 13.7 km/h 82 % 0.0 mm
11:44 9.7 °C 6.4 °C 1000.9 hPa WSW 21.9 km/h 24.8 km/h 80 % 0.0 mm
11:45 9.7 °C 6.2 °C 1000.9 hPa WSW 16.6 km/h 24.8 km/h 79 % 0.0 mm
11:50 9.7 °C 5.7 °C 1000.9 hPa SSW 16.3 km/h 24.8 km/h 76 % 0.0 mm
11:55 9.9 °C 5.9 °C 1000.9 hPa West 21.2 km/h 21.2 km/h 76 % 0.0 mm
12:00 10.0 °C 5.8 °C 1000.9 hPa WSW 20.1 km/h 21.2 km/h 75 % 0.0 mm
12:05 10.1 °C 5.8 °C 1000.9 hPa West 16.6 km/h 23.0 km/h 75 % 0.0 mm
12:10 10.1 °C 5.1 °C 1000.9 hPa WSW 17.2 km/h 26.2 km/h 71 % 0.0 mm
12:15 10.0 °C 4.8 °C 1000.9 hPa WSW 28.8 km/h 28.8 km/h 70 % 0.0 mm
12:20 10.0 °C 5.2 °C 1000.9 hPa WSW 20.9 km/h 28.8 km/h 72 % 0.0 mm
12:25 9.9 °C 4.9 °C 1000.9 hPa WSW 24.5 km/h 30.9 km/h 71 % 0.0 mm
12:30 9.9 °C 5.5 °C 1000.9 hPa WSW 16.9 km/h 30.9 km/h 74 % 0.0 mm
12:35 9.8 °C 5.6 °C 1000.9 hPa SSW 21.2 km/h 25.3 km/h 75 % 0.0 mm
12:40 9.7 °C 6.1 °C 1000.9 hPa SW 17.7 km/h 27.7 km/h 78 % 0.0 mm
12:45 9.5 °C 6.1 °C 1000.9 hPa WSW 20.1 km/h 27.7 km/h 79 % 0.0 mm
12:50 9.4 °C 6.1 °C 1000.9 hPa WSW 17.2 km/h 27.7 km/h 80 % 0.0 mm
12:55 9.3 °C 6.1 °C 1000.9 hPa WSW 20.9 km/h 24.8 km/h 80 % 0.0 mm
13:00 9.1 °C 6.0 °C 1000.9 hPa WSW 22.7 km/h 24.8 km/h 81 % 0.0 mm
13:05 9.1 °C 6.0 °C 1000.9 hPa SW 14.0 km/h 24.8 km/h 81 % 0.0 mm
13:10 9.2 °C 6.1 °C 1000.9 hPa WSW 16.9 km/h 24.5 km/h 81 % 0.0 mm
13:15 9.1 °C 6.0 °C 1000.9 hPa SW 15.1 km/h 23.0 km/h 81 % 0.0 mm
13:20 8.9 °C 6.0 °C 1000.9 hPa SSW 12.6 km/h 23.3 km/h 82 % 0.0 mm
13:25 8.7 °C 6.2 °C 1000.9 hPa SW 15.8 km/h 26.2 km/h 84 % 0.0 mm
13:30 8.4 °C 6.1 °C 1000.9 hPa SSW 13.0 km/h 26.2 km/h 85 % 0.0 mm
13:35 8.3 °C 6.1 °C 1000.9 hPa SW 11.9 km/h 14.0 km/h 86 % 0.0 mm
13:40 8.2 °C 6.2 °C 1000.9 hPa SW 7.9 km/h 14.0 km/h 87 % 0.0 mm
13:45 8.2 °C 6.4 °C 1000.9 hPa SSW 7.9 km/h 14.0 km/h 88 % 0.0 mm
13:50 8.2 °C 6.5 °C 1000.9 hPa SSW 8.7 km/h 11.9 km/h 89 % 0.0 mm
13:55 8.2 °C 6.5 °C 1000.9 hPa SW 5.5 km/h 10.5 km/h 89 % 0.0 mm
14:00 8.3 °C 6.8 °C 1000.9 hPa Calm   10.1 km/h 90 % 0.0 mm
14:05 8.4 °C 7.1 °C 1000.9 hPa WSW 10.5 km/h 11.1 km/h 91 % 0.0 mm
14:10 8.4 °C 7.1 °C 1000.9 hPa SW 9.3 km/h 12.6 km/h 91 % 0.0 mm
14:15 8.5 °C 7.2 °C 1000.9 hPa SSW 11.9 km/h 19.1 km/h 91 % 0.0 mm
14:20 8.5 °C 7.2 °C 1000.9 hPa SW 20.1 km/h 23.8 km/h 91 % 0.0 mm
14:25 8.6 °C 7.1 °C 1000.9 hPa West 23.3 km/h 27.7 km/h 90 % 0.0 mm
14:30 8.8 °C 7.1 °C 1000.9 hPa WSW 16.6 km/h 28.0 km/h 89 % 0.0 mm
14:35 8.8 °C 7.1 °C 1000.9 hPa WSW 16.6 km/h 24.5 km/h 89 % 0.0 mm
14:40 8.9 °C 7.1 °C 1000.9 hPa SW 14.0 km/h 20.6 km/h 88 % 0.0 mm
14:45 8.9 °C 7.2 °C 1000.9 hPa WSW 15.8 km/h 19.5 km/h 89 % 0.0 mm
14:50 8.9 °C 7.2 °C 1000.9 hPa WSW 15.1 km/h 16.9 km/h 89 % 0.0 mm
14:55 8.9 °C 7.1 °C 999.9 hPa SW 9.0 km/h 16.9 km/h 88 % 0.0 mm
14:56 8.9 °C 7.1 °C 999.9 hPa SSW 10.5 km/h 16.9 km/h 88 % 0.0 mm
15:01 8.8 °C 6.9 °C 999.9 hPa SW 14.0 km/h 20.6 km/h 88 % 0.0 mm
15:06 8.8 °C 6.9 °C 999.9 hPa SW 14.0 km/h 23.3 km/h 88 % 0.0 mm
15:11 8.8 °C 6.9 °C 999.9 hPa SW 16.3 km/h 23.3 km/h 88 % 0.0 mm
15:16 8.8 °C 6.9 °C 999.9 hPa SSW 11.9 km/h 23.0 km/h 88 % 0.0 mm
15:21 8.7 °C 6.8 °C 999.9 hPa SSW 13.7 km/h 19.1 km/h 88 % 0.0 mm
15:26 8.6 °C 6.6 °C 999.9 hPa SW 13.0 km/h 19.8 km/h 87 % 0.0 mm
15:31 8.6 °C 6.6 °C 999.9 hPa South 8.7 km/h 19.8 km/h 87 % 0.0 mm
15:36 8.5 °C 6.5 °C 999.9 hPa South 14.0 km/h 19.8 km/h 87 % 0.0 mm
15:41 8.5 °C 6.3 °C 999.9 hPa SW 15.8 km/h 20.6 km/h 86 % 0.0 mm
15:46 8.5 °C 6.3 °C 999.9 hPa SSW 6.9 km/h 21.2 km/h 86 % 0.0 mm
15:51 8.4 °C 6.2 °C 999.9 hPa SSW 5.8 km/h 21.2 km/h 86 % 0.0 mm
15:56 8.3 °C 6.1 °C 998.9 hPa SSW 10.1 km/h 17.2 km/h 86 % 0.0 mm
16:01 8.3 °C 5.9 °C 998.9 hPa SSE 9.3 km/h 17.2 km/h 85 % 0.0 mm
16:06 8.3 °C 5.9 °C 998.9 hPa South 10.5 km/h 17.2 km/h 85 % 0.0 mm
16:11 8.3 °C 6.1 °C 998.9 hPa South 9.3 km/h 16.3 km/h 86 % 0.0 mm
16:16 8.3 °C 6.1 °C 998.9 hPa SSW 6.4 km/h 17.2 km/h 86 % 0.0 mm
16:21 8.2 °C 6.0 °C 998.9 hPa SSW 8.7 km/h 17.2 km/h 86 % 0.0 mm
16:26 8.3 °C 6.3 °C 997.9 hPa South 14.0 km/h 14.0 km/h 87 % 0.0 mm
16:31 8.3 °C 6.3 °C 997.9 hPa South 9.7 km/h 14.8 km/h 87 % 0.0 mm
16:36 8.3 °C 6.3 °C 997.9 hPa South 10.5 km/h 15.8 km/h 87 % 0.0 mm
16:41 8.2 °C 6.2 °C 998.9 hPa South 8.7 km/h 15.8 km/h 87 % 0.0 mm
16:46 8.2 °C 6.2 °C 998.9 hPa SSW 10.8 km/h 13.7 km/h 87 % 0.0 mm
16:51 8.2 °C 6.4 °C 998.9 hPa SSE 9.7 km/h 14.0 km/h 88 % 0.0 mm
16:56 8.1 °C 6.3 °C 998.9 hPa SSE 7.9 km/h 15.8 km/h 88 % 0.0 mm
17:01 7.9 °C 6.1 °C 998.9 hPa SE 9.3 km/h 15.8 km/h 88 % 0.0 mm
17:06 7.8 °C 6.2 °C 998.9 hPa South 3.2 km/h 15.8 km/h 89 % 0.0 mm
17:11 7.7 °C 6.2 °C 997.9 hPa SSW 9.0 km/h 13.7 km/h 90 % 0.0 mm
17:16 7.7 °C 6.4 °C 997.9 hPa SSE 5.5 km/h 13.0 km/h 91 % 0.0 mm
17:21 7.7 °C 6.4 °C 997.9 hPa SSE 9.7 km/h 16.9 km/h 92 % 0.0 mm
17:26 7.6 °C 6.5 °C 997.9 hPa Calm   16.9 km/h 93 % 0.0 mm
17:31 7.6 °C 6.5 °C 997.9 hPa ESE 1.4 km/h 12.2 km/h 93 % 0.0 mm
17:36 7.6 °C 6.7 °C 997.9 hPa SSE 3.5 km/h 9.0 km/h 94 % 0.3 mm
17:41 7.4 °C 6.6 °C 997.9 hPa SSE 9.7 km/h 9.7 km/h 94 % 0.3 mm
17:46 7.4 °C 6.7 °C 997.9 hPa SSE 2.1 km/h 13.0 km/h 95 % 0.3 mm
17:51 7.4 °C 6.7 °C 997.9 hPa SSE 6.1 km/h 15.8 km/h 95 % 0.3 mm
17:56 7.3 °C 6.6 °C 997.9 hPa South 5.5 km/h 15.8 km/h 95 % 0.3 mm
18:01 7.3 °C 6.6 °C 997.9 hPa SSE 10.1 km/h 13.0 km/h 95 % 0.3 mm
18:06 7.3 °C 6.8 °C 997.9 hPa South 9.0 km/h 15.8 km/h 96 % 0.3 mm
18:11 7.3 °C 6.8 °C 996.8 hPa SSE 10.1 km/h 16.9 km/h 96 % 0.3 mm
18:16 7.3 °C 6.7 °C 996.8 hPa SSE 2.1 km/h 16.9 km/h 96 % 0.8 mm
18:21 7.3 °C 6.7 °C 996.8 hPa SSE 4.7 km/h 16.3 km/h 96 % 0.8 mm
18:26 7.3 °C 6.7 °C 996.8 hPa South 5.0 km/h 10.5 km/h 96 % 0.8 mm
18:31 7.3 °C 6.7 °C 996.8 hPa SSE 1.4 km/h 9.7 km/h 96 % 0.8 mm
18:36 7.3 °C 6.8 °C 996.8 hPa SSE 5.5 km/h 6.9 km/h 97 % 0.3 mm
18:41 7.3 °C 6.8 °C 996.8 hPa Calm   7.6 km/h 97 % 0.3 mm
18:46 7.3 °C 6.8 °C 996.8 hPa South 4.0 km/h 9.7 km/h 97 % 0.3 mm
18:51 7.3 °C 6.8 °C 996.8 hPa SSE 4.7 km/h 10.5 km/h 97 % 0.3 mm
18:56 7.3 °C 6.9 °C 996.8 hPa South 11.9 km/h 13.7 km/h 97 % 0.3 mm
19:01 7.3 °C 6.9 °C 996.8 hPa SW 6.1 km/h 13.7 km/h 97 % 0.3 mm
19:06 7.4 °C 7.0 °C 996.8 hPa SW 5.0 km/h 11.6 km/h 97 % 0.3 mm
19:11 7.4 °C 7.0 °C 996.8 hPa SSE 4.3 km/h 6.4 km/h 97 % 0.0 mm
19:12 7.4 °C 7.0 °C 996.8 hPa SSW 5.5 km/h 6.4 km/h 97 % 0.0 mm
19:17 7.6 °C 7.1 °C 996.8 hPa SSW 6.4 km/h 9.7 km/h 97 % 0.3 mm
19:22 7.6 °C 7.1 °C 996.8 hPa Calm   9.7 km/h 97 % 0.3 mm
19:27 7.7 °C 7.3 °C 996.8 hPa South 5.8 km/h 10.1 km/h 98 % 0.3 mm
19:32 7.7 °C 7.3 °C 996.8 hPa SSW 9.7 km/h 12.2 km/h 98 % 0.3 mm
19:37 7.9 °C 7.5 °C 996.2 hPa SW 10.5 km/h 13.7 km/h 97 % 0.3 mm
19:42 7.9 °C 7.5 °C 996.2 hPa WSW 7.9 km/h 13.7 km/h 97 % 0.3 mm
19:47 8.1 °C 7.7 °C 996.2 hPa WSW 9.3 km/h 15.1 km/h 98 % 0.3 mm
19:52 8.1 °C 7.8 °C 996.8 hPa WSW 14.0 km/h 17.2 km/h 98 % 0.3 mm
19:57 8.2 °C 7.9 °C 996.8 hPa WSW 13.0 km/h 17.2 km/h 98 % 0.3 mm
20:02 8.3 °C 8.1 °C 996.8 hPa West 27.7 km/h 27.7 km/h 98 % 0.3 mm
20:07 8.4 °C 8.1 °C 996.2 hPa West 17.7 km/h 27.7 km/h 98 % 0.3 mm
20:12 8.6 °C 8.3 °C 996.2 hPa West 16.6 km/h 27.0 km/h 98 % 0.3 mm
20:17 8.6 °C 8.3 °C 996.2 hPa West 15.4 km/h 27.0 km/h 98 % 0.0 mm
20:22 8.7 °C 8.4 °C 996.8 hPa West 10.1 km/h 23.8 km/h 98 % 0.0 mm
20:27 8.7 °C 8.4 °C 996.8 hPa West 20.1 km/h 21.2 km/h 98 % 0.0 mm
20:32 8.8 °C 8.5 °C 996.8 hPa West 16.9 km/h 20.6 km/h 98 % 0.0 mm
20:37 8.8 °C 8.5 °C 996.8 hPa West 16.6 km/h 21.2 km/h 98 % 0.0 mm
20:42 8.8 °C 8.5 °C 996.8 hPa West 14.0 km/h 21.2 km/h 98 % 0.0 mm
20:47 8.8 °C 8.5 °C 996.8 hPa West 14.0 km/h 23.8 km/h 98 % 0.0 mm
20:52 8.7 °C 8.4 °C 997.9 hPa WSW 19.8 km/h 23.8 km/h 98 % 0.0 mm
20:57 8.7 °C 8.4 °C 997.9 hPa West 26.2 km/h 27.7 km/h 98 % 0.0 mm
21:02 8.7 °C 8.4 °C 997.9 hPa West 19.1 km/h 27.7 km/h 98 % 0.0 mm
21:07 8.7 °C 8.4 °C 997.9 hPa West 23.3 km/h 27.4 km/h 98 % 0.0 mm
21:12 8.7 °C 8.4 °C 997.9 hPa WSW 24.5 km/h 28.0 km/h 98 % 0.0 mm
21:17 8.7 °C 8.4 °C 997.9 hPa West 13.7 km/h 28.0 km/h 98 % 0.0 mm
21:22 8.6 °C 8.3 °C 997.9 hPa West 16.3 km/h 27.7 km/h 98 % 0.0 mm
21:27 8.5 °C 8.2 °C 997.9 hPa SW 12.2 km/h 24.8 km/h 98 % 0.0 mm
21:32 8.4 °C 8.0 °C 997.9 hPa NNE 19.8 km/h 24.8 km/h 97 % 0.0 mm
21:37 8.4 °C 8.0 °C 997.9 hPa West 20.6 km/h 21.2 km/h 97 % 0.0 mm
21:42 8.3 °C 7.9 °C 997.9 hPa West 9.3 km/h 20.6 km/h 97 % 0.0 mm
21:47 8.3 °C 7.9 °C 997.9 hPa WSW 13.0 km/h 20.6 km/h 97 % 0.0 mm
21:52 8.3 °C 7.9 °C 998.9 hPa WSW 10.1 km/h 20.6 km/h 97 % 0.0 mm
21:57 8.3 °C 7.9 °C 998.9 hPa WSW 16.9 km/h 19.5 km/h 97 % 0.0 mm
22:02 8.2 °C 7.8 °C 998.9 hPa WSW 11.9 km/h 19.5 km/h 97 % 0.0 mm
22:07 8.2 °C 7.8 °C 998.9 hPa WSW 11.9 km/h 16.6 km/h 97 % 0.0 mm
22:12 8.2 °C 7.8 °C 998.9 hPa WSW 11.9 km/h 11.9 km/h 97 % 0.0 mm
22:17 8.2 °C 7.8 °C 998.9 hPa WSW 11.9 km/h 11.9 km/h 97 % 0.0 mm
22:22 8.2 °C 7.8 °C 998.9 hPa West 14.8 km/h 14.8 km/h 97 % 0.0 mm
22:27 8.2 °C 7.8 °C 998.9 hPa West 14.8 km/h 14.8 km/h 97 % 0.0 mm
22:32 8.2 °C 7.8 °C 998.9 hPa West 14.8 km/h 14.8 km/h 97 % 0.0 mm
22:38 8.1 °C 7.7 °C 998.9 hPa West 14.8 km/h 14.8 km/h 97 % 0.0 mm
22:43 8.1 °C 7.7 °C 998.9 hPa West 14.8 km/h 14.8 km/h 97 % 0.0 mm
22:48 8.1 °C 7.7 °C 998.9 hPa West 14.8 km/h 14.8 km/h 97 % 0.0 mm
22:53 8.1 °C 7.7 °C 998.9 hPa West 14.8 km/h 14.8 km/h 97 % 0.0 mm
22:58 8.1 °C 7.7 °C 998.9 hPa West 14.8 km/h 14.8 km/h 97 % 0.0 mm
23:03 8.1 °C 7.7 °C 998.9 hPa West 14.8 km/h 14.8 km/h 97 % 0.0 mm
23:08 8.1 °C 7.7 °C 998.9 hPa West 14.8 km/h 14.8 km/h 97 % 0.0 mm
23:13 8.1 °C 7.7 °C 998.9 hPa West 14.8 km/h 14.8 km/h 97 % 0.0 mm
23:18 8.2 °C 7.8 °C 998.9 hPa WSW 14.8 km/h 16.3 km/h 97 % 0.0 mm
23:23 8.3 °C 7.9 °C 998.9 hPa WSW 14.8 km/h 16.3 km/h 97 % 0.3 mm
23:28 8.3 °C 7.9 °C 998.9 hPa WSW 14.0 km/h 16.3 km/h 97 % 0.3 mm
23:33 8.3 °C 7.9 °C 998.9 hPa SW 9.0 km/h 16.3 km/h 97 % 0.3 mm
23:38 8.3 °C 7.9 °C 998.9 hPa WSW 15.8 km/h 16.9 km/h 97 % 0.3 mm
23:43 8.4 °C 8.1 °C 997.9 hPa West 16.6 km/h 20.9 km/h 98 % 0.5 mm
23:48 8.5 °C 8.2 °C 997.9 hPa WSW 31.7 km/h 31.7 km/h 98 % 1.0 mm
23:53 8.6 °C 8.3 °C 998.9 hPa WSW 31.7 km/h 31.7 km/h 98 % 1.0 mm
23:58 8.6 °C 8.3 °C 998.9 hPa WSW 31.7 km/h 31.7 km/h 98 % 1.0 mm
Le Gheer Warneton
Courtoisie de Weather Underground - 2.25 mb

Mise a jour : 17-12-17 03:05:15
Généré par Cumulus 1.9.4 (1099)